createdAt,value
2022-10-19T00:00:07.096Z,10.33
2022-10-19T00:01:07.090Z,10.31
2022-10-19T00:02:07.129Z,10.31
2022-10-19T00:03:07.037Z,10.30
2022-10-19T00:04:08.820Z,10.26
2022-10-19T00:05:07.026Z,10.26
2022-10-19T00:06:06.996Z,10.25
2022-10-19T00:07:06.985Z,10.23
2022-10-19T00:08:06.976Z,10.25
2022-10-19T00:09:06.958Z,10.22
2022-10-19T00:10:06.963Z,10.22
2022-10-19T00:11:06.933Z,10.22
2022-10-19T00:12:06.915Z,10.22
2022-10-19T00:13:06.915Z,10.20
2022-10-19T00:14:06.886Z,10.20
2022-10-19T00:15:06.895Z,10.19
2022-10-19T00:16:09.235Z,10.17
2022-10-19T00:17:06.854Z,10.17
2022-10-19T00:18:06.834Z,10.16
2022-10-19T00:19:06.834Z,10.16
2022-10-19T00:20:06.814Z,10.16
2022-10-19T00:21:06.802Z,10.15
2022-10-19T00:22:09.105Z,10.15
2022-10-19T00:23:06.774Z,10.13
2022-10-19T00:24:06.754Z,10.15
2022-10-19T00:25:06.771Z,10.15
2022-10-19T00:26:06.725Z,10.13
2022-10-19T00:27:06.723Z,10.13
2022-10-19T00:28:06.704Z,10.13
2022-10-19T00:29:06.758Z,10.13
2022-10-19T00:30:06.703Z,10.13
2022-10-19T00:31:06.737Z,10.13
2022-10-19T00:32:06.654Z,10.13
2022-10-19T00:33:06.654Z,10.13
2022-10-19T00:34:06.622Z,10.13
2022-10-19T00:35:06.687Z,10.13
2022-10-19T00:36:06.594Z,10.15
2022-10-19T00:37:06.587Z,10.15
2022-10-19T00:38:06.573Z,10.13
2022-10-19T00:39:06.552Z,10.12
2022-10-19T00:40:06.552Z,10.13
2022-10-19T00:41:06.531Z,10.15
2022-10-19T00:42:06.512Z,10.15
2022-10-19T00:43:06.509Z,10.15
2022-10-19T00:44:06.491Z,10.15
2022-10-19T00:45:06.500Z,10.15
2022-10-19T00:46:06.471Z,10.13
2022-10-19T00:47:06.451Z,10.15
2022-10-19T00:48:06.440Z,10.13
2022-10-19T00:49:09.827Z,10.15
2022-10-19T00:50:06.421Z,10.15
2022-10-19T00:51:06.400Z,10.15
2022-10-19T00:52:06.387Z,10.15
2022-10-19T00:53:06.375Z,10.15
2022-10-19T00:54:06.351Z,10.16
2022-10-19T00:55:06.360Z,10.16
2022-10-19T00:56:06.338Z,10.16
2022-10-19T00:57:06.327Z,10.15
2022-10-19T00:58:06.308Z,10.16
2022-10-19T00:59:06.299Z,10.17
2022-10-19T01:00:06.290Z,10.16
2022-10-19T01:01:06.296Z,10.17
2022-10-19T01:02:06.261Z,10.17
2022-10-19T01:03:06.247Z,10.19
2022-10-19T01:04:06.233Z,10.17
2022-10-19T01:05:06.239Z,10.17
2022-10-19T01:06:06.201Z,10.17
2022-10-19T01:07:06.188Z,10.20
2022-10-19T01:08:06.170Z,10.19
2022-10-19T01:09:06.159Z,10.20
2022-10-19T01:10:06.159Z,10.20
2022-10-19T01:11:06.138Z,10.20
2022-10-19T01:12:06.137Z,10.20
2022-10-19T01:13:06.108Z,10.22
2022-10-19T01:14:06.088Z,10.22
2022-10-19T01:15:06.098Z,10.22
2022-10-19T01:16:06.067Z,10.23
2022-10-19T01:17:06.062Z,10.25
2022-10-19T01:18:06.037Z,10.23
2022-10-19T01:19:06.027Z,10.23
2022-10-19T01:20:06.028Z,10.23
2022-10-19T01:21:06.006Z,10.23
2022-10-19T01:22:05.997Z,10.23
2022-10-19T01:23:05.975Z,10.25
2022-10-19T01:24:05.966Z,10.25
2022-10-19T01:25:05.958Z,10.25
2022-10-19T01:26:05.937Z,10.26
2022-10-19T01:27:05.926Z,10.26
2022-10-19T01:28:05.917Z,10.28
2022-10-19T01:29:05.953Z,10.26
2022-10-19T01:30:05.907Z,10.23
2022-10-19T01:31:05.884Z,10.25
2022-10-19T01:32:05.865Z,10.28
2022-10-19T01:33:05.846Z,10.26
2022-10-19T01:34:05.862Z,10.26
2022-10-19T01:35:05.826Z,10.28
2022-10-19T01:36:05.814Z,10.30
2022-10-19T01:37:05.796Z,10.30
2022-10-19T01:38:05.786Z,10.30
2022-10-19T01:39:05.784Z,10.30
2022-10-19T01:40:05.757Z,10.31
2022-10-19T01:41:05.757Z,10.33
2022-10-19T01:42:05.736Z,10.30
2022-10-19T01:43:05.715Z,10.31
2022-10-19T01:44:05.724Z,10.33
2022-10-19T01:45:05.693Z,10.34
2022-10-19T01:46:05.684Z,10.31
2022-10-19T01:47:05.665Z,10.33
2022-10-19T01:48:05.664Z,10.33
2022-10-19T01:49:05.648Z,10.33
2022-10-19T01:50:05.645Z,10.33
2022-10-19T01:51:05.613Z,10.34
2022-10-19T01:52:05.614Z,10.34
2022-10-19T01:53:05.604Z,10.34
2022-10-19T01:54:05.584Z,10.34
2022-10-19T01:55:05.576Z,10.34
2022-10-19T01:56:05.562Z,10.33
2022-10-19T01:57:05.553Z,10.33
2022-10-19T01:58:08.307Z,10.34
2022-10-19T01:59:05.511Z,10.34
2022-10-19T02:00:05.522Z,10.34
2022-10-19T02:01:05.592Z,10.34
2022-10-19T02:02:05.474Z,10.37
2022-10-19T02:03:05.453Z,10.34
2022-10-19T02:04:05.453Z,10.35
2022-10-19T02:05:05.450Z,10.35
2022-10-19T02:06:05.432Z,10.35
2022-10-19T02:07:05.412Z,10.37
2022-10-19T02:08:05.392Z,10.37
2022-10-19T02:09:05.380Z,10.37
2022-10-19T02:10:05.454Z,10.37
2022-10-19T02:11:05.353Z,10.35
2022-10-19T02:12:05.344Z,10.35
2022-10-19T02:13:05.323Z,10.37
2022-10-19T02:14:05.332Z,10.38
2022-10-19T02:15:05.302Z,10.37
2022-10-19T02:16:05.294Z,10.38
2022-10-19T02:17:05.281Z,10.37
2022-10-19T02:18:05.261Z,10.38
2022-10-19T02:19:05.261Z,10.40
2022-10-19T02:20:05.269Z,10.40
2022-10-19T02:21:05.228Z,10.40
2022-10-19T02:22:05.215Z,10.40
2022-10-19T02:23:05.190Z,10.38
2022-10-19T02:24:05.191Z,10.40
2022-10-19T02:25:05.182Z,10.37
2022-10-19T02:26:05.162Z,10.40
2022-10-19T02:27:05.156Z,10.38
2022-10-19T02:28:05.138Z,10.38
2022-10-19T02:29:05.119Z,10.40
2022-10-19T02:30:05.122Z,10.38
2022-10-19T02:31:05.093Z,10.38
2022-10-19T02:32:05.080Z,10.38
2022-10-19T02:33:05.060Z,10.37
2022-10-19T02:34:05.070Z,10.41
2022-10-19T02:35:05.050Z,10.40
2022-10-19T02:36:05.031Z,10.38
2022-10-19T02:37:05.019Z,10.38
2022-10-19T02:38:05.003Z,10.38
2022-10-19T02:39:04.999Z,10.38
2022-10-19T02:40:04.978Z,10.40
2022-10-19T02:41:04.958Z,10.38
2022-10-19T02:42:04.951Z,10.38
2022-10-19T02:43:04.941Z,10.40
2022-10-19T02:44:04.939Z,10.38
2022-10-19T02:45:04.910Z,10.38
2022-10-19T02:46:04.928Z,10.38
2022-10-19T02:47:04.889Z,10.38
2022-10-19T02:48:04.907Z,10.38
2022-10-19T02:49:04.867Z,10.40
2022-10-19T02:50:04.848Z,10.40
2022-10-19T02:51:04.837Z,10.38
2022-10-19T02:52:04.820Z,10.40
2022-10-19T02:53:04.813Z,10.40
2022-10-19T02:54:05.446Z,10.38
2022-10-19T02:55:04.778Z,10.40
2022-10-19T02:56:04.767Z,10.40
2022-10-19T02:57:04.765Z,10.41
2022-10-19T02:58:04.746Z,10.41
2022-10-19T02:59:04.737Z,10.41
2022-10-19T03:00:04.720Z,10.40
2022-10-19T03:01:04.769Z,10.42
2022-10-19T03:02:04.690Z,10.41
2022-10-19T03:03:04.677Z,10.40
2022-10-19T03:04:04.676Z,10.40
2022-10-19T03:05:04.647Z,10.41
2022-10-19T03:06:04.637Z,10.41
2022-10-19T03:07:04.627Z,10.41
2022-10-19T03:08:04.618Z,10.41
2022-10-19T03:09:04.608Z,10.41
2022-10-19T03:10:04.595Z,10.41
2022-10-19T03:11:04.573Z,10.42
2022-10-19T03:12:04.568Z,10.44
2022-10-19T03:13:04.548Z,10.42
2022-10-19T03:14:04.556Z,10.42
2022-10-19T03:15:04.534Z,10.44
2022-10-19T03:16:04.506Z,10.42
2022-10-19T03:17:04.503Z,10.42
2022-10-19T03:18:04.486Z,10.44
2022-10-19T03:19:04.478Z,10.44
2022-10-19T03:20:04.474Z,10.44
2022-10-19T03:21:04.444Z,10.46
2022-10-19T03:22:04.435Z,10.46
2022-10-19T03:23:04.465Z,10.44
2022-10-19T03:24:04.405Z,10.44
2022-10-19T03:25:04.411Z,10.42
2022-10-19T03:26:05.693Z,10.44
2022-10-19T03:27:04.374Z,10.42
2022-10-19T03:28:04.354Z,10.46
2022-10-19T03:29:04.387Z,10.46
2022-10-19T03:30:04.344Z,10.44
2022-10-19T03:31:04.314Z,10.44
2022-10-19T03:32:04.303Z,10.46
2022-10-19T03:33:04.293Z,10.46
2022-10-19T03:34:04.283Z,10.44
2022-10-19T03:35:04.275Z,10.46
2022-10-19T03:36:04.253Z,10.46
2022-10-19T03:37:04.245Z,10.44
2022-10-19T03:38:04.225Z,10.46
2022-10-19T03:39:04.212Z,10.46
2022-10-19T03:40:04.214Z,10.46
2022-10-19T03:41:04.183Z,10.48
2022-10-19T03:42:04.173Z,10.46
2022-10-19T03:43:04.162Z,10.48
2022-10-19T03:44:04.172Z,10.46
2022-10-19T03:45:04.142Z,10.48
2022-10-19T03:46:04.137Z,10.48
2022-10-19T03:47:04.113Z,10.49
2022-10-19T03:48:04.095Z,10.49
2022-10-19T03:49:04.081Z,10.48
2022-10-19T03:50:04.082Z,10.46
2022-10-19T03:51:04.052Z,10.46
2022-10-19T03:52:04.042Z,10.48
2022-10-19T03:53:04.037Z,10.48
2022-10-19T03:54:04.023Z,10.49
2022-10-19T03:55:04.012Z,10.48
2022-10-19T03:56:03.999Z,10.48
2022-10-19T03:57:03.985Z,10.48
2022-10-19T03:58:03.972Z,10.49
2022-10-19T03:59:03.951Z,10.49
2022-10-19T04:00:03.952Z,10.48
2022-10-19T04:01:03.961Z,10.49
2022-10-19T04:02:03.911Z,10.49
2022-10-19T04:03:03.901Z,10.49
2022-10-19T04:04:03.890Z,10.49
2022-10-19T04:05:03.881Z,10.49
2022-10-19T04:06:03.860Z,10.49
2022-10-19T04:07:03.852Z,10.51
2022-10-19T04:08:03.857Z,10.51
2022-10-19T04:09:03.820Z,10.51
2022-10-19T04:10:03.821Z,10.51
2022-10-19T04:11:03.802Z,10.49
2022-10-19T04:12:03.781Z,10.49
2022-10-19T04:13:03.771Z,10.51
2022-10-19T04:14:03.835Z,10.53
2022-10-19T04:15:03.759Z,10.51
2022-10-19T04:16:03.739Z,10.49
2022-10-19T04:17:03.720Z,10.51
2022-10-19T04:18:03.711Z,10.49
2022-10-19T04:19:03.691Z,10.51
2022-10-19T04:20:03.696Z,10.51
2022-10-19T04:21:03.669Z,10.51
2022-10-19T04:22:03.666Z,10.54
2022-10-19T04:23:03.664Z,10.49
2022-10-19T04:24:03.631Z,10.53
2022-10-19T04:25:03.631Z,10.51
2022-10-19T04:26:03.600Z,10.53
2022-10-19T04:27:03.588Z,10.54
2022-10-19T04:28:03.579Z,10.51
2022-10-19T04:29:03.613Z,10.51
2022-10-19T04:30:03.567Z,10.51
2022-10-19T04:31:03.537Z,10.51
2022-10-19T04:32:03.529Z,10.51
2022-10-19T04:33:03.514Z,10.51
2022-10-19T04:34:03.519Z,10.53
2022-10-19T04:35:03.487Z,10.53
2022-10-19T04:36:03.469Z,10.53
2022-10-19T04:37:03.458Z,10.53
2022-10-19T04:38:03.447Z,10.54
2022-10-19T04:39:03.443Z,10.54
2022-10-19T04:40:03.427Z,10.53
2022-10-19T04:41:03.410Z,10.53
2022-10-19T04:42:03.395Z,10.53
2022-10-19T04:43:03.376Z,10.53
2022-10-19T04:44:03.369Z,10.54
2022-10-19T04:45:03.365Z,10.53
2022-10-19T04:46:03.336Z,10.56
2022-10-19T04:47:03.327Z,10.56
2022-10-19T04:48:03.317Z,10.54
2022-10-19T04:49:03.298Z,10.53
2022-10-19T04:50:03.296Z,10.54
2022-10-19T04:51:03.267Z,10.54
2022-10-19T04:52:03.256Z,10.54
2022-10-19T04:53:03.246Z,10.56
2022-10-19T04:54:03.237Z,10.56
2022-10-19T04:55:03.225Z,10.56
2022-10-19T04:56:03.206Z,10.54
2022-10-19T04:57:03.211Z,10.56
2022-10-19T04:58:03.175Z,10.56
2022-10-19T04:59:03.163Z,10.56
2022-10-19T05:00:03.168Z,10.54
2022-10-19T05:01:03.172Z,10.56
2022-10-19T05:02:03.127Z,10.57
2022-10-19T05:03:03.105Z,10.56
2022-10-19T05:04:03.102Z,10.56
2022-10-19T05:05:03.096Z,10.56
2022-10-19T05:06:03.077Z,10.56
2022-10-19T05:07:03.066Z,10.54
2022-10-19T05:08:03.052Z,10.56
2022-10-19T05:09:03.024Z,10.56
2022-10-19T05:10:03.035Z,10.54
2022-10-19T05:11:03.003Z,10.56
2022-10-19T05:12:02.994Z,10.54
2022-10-19T05:13:02.973Z,10.56
2022-10-19T05:14:02.966Z,10.56
2022-10-19T05:15:02.963Z,10.54
2022-10-19T05:16:02.941Z,10.56
2022-10-19T05:17:02.934Z,10.53
2022-10-19T05:18:02.924Z,10.56
2022-10-19T05:19:02.892Z,10.56
2022-10-19T05:20:02.922Z,10.56
2022-10-19T05:21:02.872Z,10.54
2022-10-19T05:22:02.861Z,10.56
2022-10-19T05:23:06.324Z,10.56
2022-10-19T05:24:02.832Z,10.56
2022-10-19T05:25:02.823Z,10.57
2022-10-19T05:26:02.822Z,10.54
2022-10-19T05:27:02.802Z,10.56
2022-10-19T05:28:02.782Z,10.56
2022-10-19T05:29:02.908Z,10.56
2022-10-19T05:30:02.764Z,10.56
2022-10-19T05:31:02.732Z,10.57
2022-10-19T05:32:02.729Z,10.57
2022-10-19T05:33:02.722Z,10.57
2022-10-19T05:34:02.784Z,10.57
2022-10-19T05:35:02.703Z,10.57
2022-10-19T05:36:02.671Z,10.57
2022-10-19T05:37:02.662Z,10.56
2022-10-19T05:38:02.645Z,10.57
2022-10-19T05:39:02.632Z,10.59
2022-10-19T05:40:02.633Z,10.57
2022-10-19T05:41:02.621Z,10.59
2022-10-19T05:42:02.591Z,10.59
2022-10-19T05:43:02.582Z,10.56
2022-10-19T05:44:02.572Z,10.59
2022-10-19T05:45:02.571Z,10.59
2022-10-19T05:46:02.538Z,10.59
2022-10-19T05:47:02.538Z,10.57
2022-10-19T05:48:02.510Z,10.59
2022-10-19T05:49:02.522Z,10.59
2022-10-19T05:50:02.512Z,10.59
2022-10-19T05:51:02.478Z,10.60
2022-10-19T05:52:02.489Z,10.59
2022-10-19T05:53:02.451Z,10.59
2022-10-19T05:54:02.433Z,10.60
2022-10-19T05:55:02.441Z,10.60
2022-10-19T05:56:02.409Z,10.60
2022-10-19T05:57:02.410Z,10.59
2022-10-19T05:58:02.384Z,10.60
2022-10-19T05:59:02.376Z,10.59
2022-10-19T06:00:02.379Z,10.60
2022-10-19T06:01:02.349Z,10.60
2022-10-19T06:02:02.395Z,10.60
2022-10-19T06:03:02.329Z,10.60
2022-10-19T06:04:02.308Z,10.59
2022-10-19T06:05:02.318Z,10.60
2022-10-19T06:06:02.280Z,10.61
2022-10-19T06:07:02.278Z,10.61
2022-10-19T06:08:02.257Z,10.60
2022-10-19T06:09:02.248Z,10.61
2022-10-19T06:10:02.240Z,10.61
2022-10-19T06:11:02.218Z,10.61
2022-10-19T06:12:02.215Z,10.61
2022-10-19T06:13:02.210Z,10.61
2022-10-19T06:14:09.677Z,10.64
2022-10-19T06:15:10.866Z,10.63
2022-10-19T06:16:02.152Z,10.64
2022-10-19T06:17:02.146Z,10.64
2022-10-19T06:18:02.123Z,10.67
2022-10-19T06:19:02.127Z,10.67
2022-10-19T06:20:02.138Z,10.68
2022-10-19T06:21:02.096Z,10.68
2022-10-19T06:22:02.073Z,10.68
2022-10-19T06:23:02.064Z,10.68
2022-10-19T06:24:02.055Z,10.69
2022-10-19T06:25:02.058Z,10.71
2022-10-19T06:26:02.023Z,10.71
2022-10-19T06:27:02.023Z,10.71
2022-10-19T06:28:01.994Z,10.71
2022-10-19T06:29:01.993Z,10.71
2022-10-19T06:30:01.985Z,10.74
2022-10-19T06:31:02.800Z,10.74
2022-10-19T06:32:01.946Z,10.75
2022-10-19T06:34:02.001Z,10.76
2022-10-19T06:35:01.922Z,10.75
2022-10-19T06:36:01.902Z,10.78
2022-10-19T06:37:01.901Z,10.75
2022-10-19T06:38:01.870Z,10.76
2022-10-19T06:39:02.058Z,10.78
2022-10-19T06:40:06.748Z,10.79
2022-10-19T06:41:02.832Z,10.79
2022-10-19T06:42:01.813Z,10.79
2022-10-19T06:43:01.813Z,10.81
2022-10-19T06:44:01.791Z,10.84
2022-10-19T06:45:01.793Z,10.84
2022-10-19T06:46:01.779Z,10.86
2022-10-19T06:47:02.070Z,10.87
2022-10-19T06:48:04.961Z,10.87
2022-10-19T06:49:02.744Z,10.89
2022-10-19T06:50:01.751Z,10.90
2022-10-19T06:51:01.701Z,10.90
2022-10-19T06:52:01.687Z,10.93
2022-10-19T06:53:01.680Z,10.94
2022-10-19T06:54:01.671Z,10.94
2022-10-19T06:55:01.667Z,10.97
2022-10-19T06:56:01.644Z,10.99
2022-10-19T06:57:01.631Z,11.00
2022-10-19T06:58:01.614Z,11.02
2022-10-19T06:59:01.604Z,11.04
2022-10-19T07:00:01.624Z,11.07
2022-10-19T07:01:01.604Z,11.08
2022-10-19T07:02:01.562Z,11.11
2022-10-19T07:03:01.552Z,11.12
2022-10-19T07:04:01.537Z,11.14
2022-10-19T07:05:07.012Z,11.17
2022-10-19T07:06:02.500Z,11.19
2022-10-19T07:07:01.499Z,11.19
2022-10-19T07:08:01.523Z,11.25
2022-10-19T07:09:01.468Z,11.26
2022-10-19T07:10:01.469Z,11.29
2022-10-19T07:11:01.453Z,11.30
2022-10-19T07:12:01.428Z,11.33
2022-10-19T07:13:01.432Z,11.33
2022-10-19T07:14:01.398Z,11.35
2022-10-19T07:15:01.408Z,11.36
2022-10-19T07:16:01.379Z,11.37
2022-10-19T07:17:01.380Z,11.40
2022-10-19T07:18:01.348Z,11.40
2022-10-19T07:19:01.339Z,11.43
2022-10-19T07:20:01.326Z,11.43
2022-10-19T07:21:01.328Z,11.45
2022-10-19T07:22:01.308Z,11.47
2022-10-19T07:23:01.288Z,11.47
2022-10-19T07:24:01.267Z,11.50
2022-10-19T07:25:01.267Z,11.47
2022-10-19T07:26:01.256Z,11.51
2022-10-19T07:27:01.237Z,11.51
2022-10-19T07:28:01.226Z,11.52
2022-10-19T07:29:01.218Z,11.52
2022-10-19T07:30:01.200Z,11.55
2022-10-19T07:31:01.197Z,11.55
2022-10-19T07:32:01.167Z,11.57
2022-10-19T07:33:01.165Z,11.59
2022-10-19T07:34:01.157Z,11.60
2022-10-19T07:35:01.151Z,11.60
2022-10-19T07:36:01.127Z,11.63
2022-10-19T07:37:01.106Z,11.62
2022-10-19T07:38:01.087Z,11.65
2022-10-19T07:39:01.085Z,11.65
2022-10-19T07:40:01.070Z,11.66
2022-10-19T07:41:01.066Z,11.68
2022-10-19T07:42:01.046Z,11.69
2022-10-19T07:43:01.034Z,11.70
2022-10-19T07:44:01.007Z,11.69
2022-10-19T07:45:01.005Z,11.70
2022-10-19T07:46:00.996Z,11.70
2022-10-19T07:47:00.984Z,11.70
2022-10-19T07:48:00.963Z,11.70
2022-10-19T07:49:00.956Z,11.72
2022-10-19T07:50:00.937Z,11.72
2022-10-19T07:51:00.935Z,11.72
2022-10-19T07:52:00.905Z,11.73
2022-10-19T07:53:00.904Z,11.77
2022-10-19T07:54:00.883Z,11.78
2022-10-19T07:55:00.875Z,11.80
2022-10-19T07:56:00.951Z,11.78
2022-10-19T07:57:00.845Z,11.80
2022-10-19T07:58:00.916Z,11.80
2022-10-19T07:59:00.824Z,11.81
2022-10-19T08:00:00.805Z,11.84
2022-10-19T08:01:00.805Z,11.84
2022-10-19T08:02:00.839Z,11.86
2022-10-19T08:03:36.136Z,11.84
2022-10-19T08:05:05.099Z,11.87
2022-10-19T08:06:01.735Z,11.90
2022-10-19T08:07:00.716Z,11.90
2022-10-19T08:08:00.703Z,11.94
2022-10-19T08:09:00.723Z,11.95
2022-10-19T08:10:00.678Z,11.97
2022-10-19T08:11:00.683Z,11.99
2022-10-19T08:12:00.650Z,12.00
2022-10-19T08:13:00.642Z,11.99
2022-10-19T08:14:00.623Z,12.00
2022-10-19T08:15:00.613Z,12.03
2022-10-19T08:16:00.621Z,12.06
2022-10-19T08:17:00.592Z,12.06
2022-10-19T08:18:00.572Z,12.09
2022-10-19T08:19:00.562Z,12.10
2022-10-19T08:20:00.557Z,12.12
2022-10-19T08:21:00.559Z,12.13
2022-10-19T08:22:00.544Z,12.17
2022-10-19T08:23:00.512Z,12.18
2022-10-19T08:24:00.506Z,12.20
2022-10-19T08:25:00.483Z,12.22
2022-10-19T08:26:00.490Z,12.22
2022-10-19T08:27:00.462Z,12.22
2022-10-19T08:28:00.443Z,12.24
2022-10-19T08:29:00.432Z,12.28
2022-10-19T08:30:00.416Z,12.27
2022-10-19T08:31:00.422Z,12.29
2022-10-19T08:32:00.381Z,12.31
2022-10-19T08:33:00.381Z,12.35
2022-10-19T08:34:00.371Z,12.35
2022-10-19T08:35:00.357Z,12.36
2022-10-19T08:36:00.350Z,12.37
2022-10-19T08:37:04.121Z,12.39
2022-10-19T08:38:02.882Z,12.40
2022-10-19T08:39:00.300Z,12.45
2022-10-19T08:40:00.281Z,12.45
2022-10-19T08:41:00.289Z,12.49
2022-10-19T08:42:00.258Z,12.57
2022-10-19T08:43:00.241Z,12.57
2022-10-19T08:44:00.230Z,12.61
2022-10-19T08:45:00.223Z,12.60
2022-10-19T08:46:00.221Z,12.65
2022-10-19T08:47:02.435Z,12.67
2022-10-19T08:48:00.179Z,12.68
2022-10-19T08:49:00.170Z,12.72
2022-10-19T08:50:00.177Z,12.75
2022-10-19T08:51:00.151Z,12.75
2022-10-19T08:52:00.122Z,12.75
2022-10-19T08:53:00.118Z,12.79
2022-10-19T08:54:00.103Z,12.80
2022-10-19T08:55:00.128Z,12.83
2022-10-19T08:56:03.760Z,12.85
2022-10-19T08:57:00.100Z,12.87
2022-10-19T08:58:00.051Z,12.87
2022-10-19T08:59:00.040Z,12.90
2022-10-19T09:00:00.020Z,12.94
2022-10-19T09:01:00.021Z,12.98
2022-10-19T09:01:59.999Z,13.00
2022-10-19T09:02:59.980Z,13.01
2022-10-19T09:03:59.971Z,13.04
2022-10-19T09:04:59.958Z,13.08
2022-10-19T09:05:59.950Z,13.08
2022-10-19T09:06:59.939Z,13.09
2022-10-19T09:07:59.910Z,13.12
2022-10-19T09:08:59.974Z,13.18
2022-10-19T09:09:59.888Z,13.16
2022-10-19T09:10:59.889Z,13.20
2022-10-19T09:11:59.859Z,13.25
2022-10-19T09:12:59.865Z,13.27
2022-10-19T09:14:05.067Z,13.31
2022-10-19T09:15:00.829Z,13.35
2022-10-19T09:15:59.830Z,13.46
2022-10-19T09:16:59.801Z,13.44
2022-10-19T09:17:59.779Z,13.50
2022-10-19T09:18:59.772Z,13.62
2022-10-19T09:19:59.759Z,13.62
2022-10-19T09:20:59.759Z,13.67
2022-10-19T09:21:59.728Z,13.75
2022-10-19T09:22:59.719Z,13.87
2022-10-19T09:23:59.699Z,13.95
2022-10-19T09:24:59.689Z,13.95
2022-10-19T09:25:59.694Z,14.00
2022-10-19T09:26:59.669Z,14.05
2022-10-19T09:27:59.648Z,14.10
2022-10-19T09:28:59.638Z,14.08
2022-10-19T09:29:59.630Z,14.20
2022-10-19T09:30:59.629Z,14.25
2022-10-19T09:31:59.660Z,14.26
2022-10-19T09:32:59.588Z,14.32
2022-10-19T09:33:59.569Z,14.37
2022-10-19T09:34:59.559Z,14.44
2022-10-19T09:35:59.558Z,14.44
2022-10-19T09:36:59.645Z,14.53
2022-10-19T09:37:59.519Z,14.60
2022-10-19T09:38:59.507Z,14.60
2022-10-19T09:39:59.490Z,14.68
2022-10-19T09:40:59.498Z,14.78
2022-10-19T09:41:59.467Z,14.86
2022-10-19T09:42:59.459Z,14.89
2022-10-19T09:43:59.448Z,14.91
2022-10-19T09:44:59.476Z,14.94
2022-10-19T09:45:59.437Z,14.97
2022-10-19T09:46:59.400Z,14.97
2022-10-19T09:48:10.034Z,15.00
2022-10-19T09:49:00.377Z,15.09
2022-10-19T09:49:59.368Z,15.15
2022-10-19T09:50:59.361Z,15.15
2022-10-19T09:51:59.348Z,15.21
2022-10-19T09:52:59.320Z,15.22
2022-10-19T09:53:59.317Z,15.24
2022-10-19T09:54:59.297Z,15.24
2022-10-19T09:55:59.306Z,15.27
2022-10-19T09:56:59.271Z,15.28
2022-10-19T09:57:59.267Z,15.25
2022-10-19T09:58:59.246Z,15.28
2022-10-19T09:59:59.237Z,15.28
2022-10-19T10:00:59.229Z,15.31
2022-10-19T10:01:59.384Z,15.35
2022-10-19T10:02:59.187Z,15.36
2022-10-19T10:03:59.186Z,15.40
2022-10-19T10:04:59.167Z,15.39
2022-10-19T10:05:59.171Z,15.46
2022-10-19T10:06:59.139Z,15.49
2022-10-19T10:07:59.129Z,15.51
2022-10-19T10:08:59.244Z,15.59
2022-10-19T10:09:59.115Z,15.58
2022-10-19T10:10:59.098Z,15.67
2022-10-19T10:11:59.081Z,15.68
2022-10-19T10:12:59.062Z,15.76
2022-10-19T10:13:59.056Z,15.77
2022-10-19T10:14:59.039Z,15.82
2022-10-19T10:15:59.038Z,15.82
2022-10-19T10:16:59.006Z,16.02
2022-10-19T10:17:58.997Z,16.13
2022-10-19T10:18:58.988Z,16.15
2022-10-19T10:19:58.976Z,16.29
2022-10-19T10:20:58.973Z,16.49
2022-10-19T10:21:58.948Z,16.49
2022-10-19T10:22:58.927Z,16.60
2022-10-19T10:23:58.918Z,16.60
2022-10-19T10:24:58.907Z,16.69
2022-10-19T10:25:58.908Z,16.78
2022-10-19T10:26:58.969Z,16.79
2022-10-19T10:27:58.867Z,16.84
2022-10-19T10:29:01.373Z,16.87
2022-10-19T10:29:58.845Z,16.87
2022-10-19T10:30:58.837Z,16.89
2022-10-19T10:31:58.817Z,16.89
2022-10-19T10:33:08.090Z,16.90
2022-10-19T10:34:06.525Z,16.93
2022-10-19T10:35:01.347Z,16.94
2022-10-19T10:35:58.777Z,16.93
2022-10-19T10:36:58.746Z,16.93
2022-10-19T10:37:58.739Z,16.93
2022-10-19T10:38:58.772Z,16.93
2022-10-19T10:40:01.917Z,16.94
2022-10-19T10:40:59.707Z,16.91
2022-10-19T10:41:58.746Z,16.91
2022-10-19T10:42:58.682Z,16.91
2022-10-19T10:44:00.939Z,16.89
2022-10-19T10:44:59.648Z,16.86
2022-10-19T10:45:58.647Z,16.83
2022-10-19T10:46:58.616Z,16.86
2022-10-19T10:47:58.685Z,16.84
2022-10-19T10:48:58.593Z,16.84
2022-10-19T10:49:58.578Z,16.86
2022-10-19T10:50:58.578Z,16.87
2022-10-19T10:51:58.558Z,16.84
2022-10-19T10:52:58.548Z,16.79
2022-10-19T10:53:58.528Z,16.76
2022-10-19T10:54:58.510Z,16.79
2022-10-19T10:55:58.525Z,16.75
2022-10-19T10:57:00.868Z,16.71
2022-10-19T10:57:59.477Z,16.72
2022-10-19T10:58:58.458Z,16.74
2022-10-19T10:59:58.451Z,16.78
2022-10-19T11:00:58.447Z,16.86
2022-10-19T11:01:58.474Z,16.84
2022-10-19T11:02:58.413Z,16.96
2022-10-19T11:03:58.405Z,16.96
2022-10-19T11:04:58.379Z,16.99
2022-10-19T11:05:58.388Z,17.08
2022-10-19T11:06:58.415Z,17.08
2022-10-19T11:07:58.350Z,17.08
2022-10-19T11:08:58.352Z,17.09
2022-10-19T11:09:58.317Z,17.11
2022-10-19T11:10:58.320Z,17.16
2022-10-19T11:11:58.300Z,17.22
2022-10-19T11:12:58.277Z,17.20
2022-10-19T11:13:58.267Z,17.23
2022-10-19T11:14:58.247Z,17.26
2022-10-19T11:15:58.258Z,17.30
2022-10-19T11:16:58.225Z,17.36
2022-10-19T11:17:58.217Z,17.36
2022-10-19T11:18:58.197Z,17.45
2022-10-19T11:19:58.196Z,17.49
2022-10-19T11:20:58.200Z,17.48
2022-10-19T11:21:58.188Z,17.52
2022-10-19T11:22:58.147Z,17.54
2022-10-19T11:23:58.167Z,17.52
2022-10-19T11:24:58.126Z,17.51
2022-10-19T11:25:58.145Z,17.49
2022-10-19T11:26:58.097Z,17.51
2022-10-19T11:27:58.088Z,17.51
2022-10-19T11:28:58.068Z,17.49
2022-10-19T11:29:58.059Z,17.52
2022-10-19T11:30:58.056Z,17.52
2022-10-19T11:31:58.038Z,17.54
2022-10-19T11:32:58.016Z,17.52
2022-10-19T11:33:58.008Z,17.45
2022-10-19T11:34:57.996Z,17.39
2022-10-19T11:35:57.995Z,17.34
2022-10-19T11:36:57.962Z,17.31
2022-10-19T11:38:18.374Z,17.27
2022-10-19T11:38:58.938Z,17.29
2022-10-19T11:39:57.928Z,17.24
2022-10-19T11:41:17.707Z,17.23
2022-10-19T11:41:58.898Z,17.23
2022-10-19T11:42:57.878Z,17.22
2022-10-19T11:43:57.880Z,17.22
2022-10-19T11:44:57.858Z,17.23
2022-10-19T11:45:57.857Z,17.23
2022-10-19T11:46:57.838Z,17.24
2022-10-19T11:47:57.818Z,17.24
2022-10-19T11:48:57.799Z,17.24
2022-10-19T11:49:57.851Z,17.24
2022-10-19T11:51:04.106Z,17.26
2022-10-19T11:51:58.777Z,17.27
2022-10-19T11:52:57.749Z,17.27
2022-10-19T11:53:57.738Z,17.27
2022-10-19T11:54:57.728Z,17.27
2022-10-19T11:55:57.727Z,17.30
2022-10-19T11:57:03.550Z,17.31
2022-10-19T11:57:58.687Z,17.31
2022-10-19T11:58:57.677Z,17.33
2022-10-19T12:00:03.973Z,17.34
2022-10-19T12:00:58.658Z,17.38
2022-10-19T12:01:57.669Z,17.39
2022-10-19T12:03:01.471Z,17.38
2022-10-19T12:03:58.619Z,17.38
2022-10-19T12:04:57.604Z,17.39
2022-10-19T12:05:57.597Z,17.34
2022-10-19T12:06:57.568Z,17.30
2022-10-19T12:07:57.558Z,17.29
2022-10-19T12:08:57.589Z,17.33
2022-10-19T12:09:57.527Z,17.31
2022-10-19T12:10:57.528Z,17.34
2022-10-19T12:11:57.521Z,17.30
2022-10-19T12:12:57.489Z,17.31
2022-10-19T12:13:57.477Z,17.36
2022-10-19T12:14:57.465Z,17.36
2022-10-19T12:15:57.469Z,17.38
2022-10-19T12:16:57.460Z,17.38
2022-10-19T12:17:57.427Z,17.36
2022-10-19T12:18:57.408Z,17.38
2022-10-19T12:19:57.398Z,17.24
2022-10-19T12:20:57.397Z,17.20
2022-10-19T12:21:57.426Z,17.14
2022-10-19T12:22:57.361Z,17.12
2022-10-19T12:23:57.347Z,17.11
2022-10-19T12:24:57.328Z,17.09
2022-10-19T12:25:57.341Z,17.12
2022-10-19T12:26:57.307Z,17.09
2022-10-19T12:27:57.296Z,17.09
2022-10-19T12:28:57.302Z,17.11
2022-10-19T12:29:57.275Z,17.08
2022-10-19T12:30:57.266Z,17.06
2022-10-19T12:31:57.274Z,17.05
2022-10-19T12:32:57.238Z,17.06
2022-10-19T12:33:57.218Z,17.02
2022-10-19T12:34:57.196Z,17.01
2022-10-19T12:35:57.218Z,17.08
2022-10-19T12:36:57.178Z,17.14
2022-10-19T12:37:57.291Z,17.20
2022-10-19T12:39:00.562Z,17.27
2022-10-19T12:39:57.137Z,17.33
2022-10-19T12:40:57.135Z,17.31
2022-10-19T12:41:57.115Z,17.30
2022-10-19T12:42:57.096Z,17.29
2022-10-19T12:43:57.087Z,17.24
2022-10-19T12:44:58.737Z,17.24
2022-10-19T12:45:57.079Z,17.15
2022-10-19T12:47:00.067Z,17.12
2022-10-19T12:47:57.036Z,17.12
2022-10-19T12:48:57.017Z,17.08
2022-10-19T12:49:57.013Z,17.04
2022-10-19T12:50:57.017Z,17.01
2022-10-19T12:51:56.978Z,16.99
2022-10-19T12:52:56.967Z,16.96
2022-10-19T12:53:56.960Z,16.96